Time;durP1;ratioP1;P1;durP2;ratioP2;P2;SDS_P1;SDS_P2;PMS_P1;PMS_P2;Temp;Humidity;BMP_temperature;BMP_pressure;BME280_temperature;BME280_humidity;BME280_pressure;Samples;Min_cycle;Max_cycle;Signal;HPM_P1;HPM_P2
2023/03/20 00:00:20;;;;;;;37.78;29.27;;;;;;;12.72;83.40;101587.88;6023534;23;20491;-80
2023/03/20 00:03:15;;;;;;;31.33;26.00;;;;;;;11.29;81.60;101328.00;6029728;23;20049;-79
2023/03/20 00:05:47;;;;;;;37.90;29.63;;;;;;;12.80;82.86;101577.41;6028560;23;20344;-81
2023/03/20 00:08:34;;;;;;;40.03;28.52;;;;;;;12.29;81.60;101478.69;6038455;23;20102;-83
2023/03/20 00:12:02;;;;;;;;;;;;;;;;;;;;;
2023/03/20 00:15:09;;;;;;;34.28;26.60;;;;;;;12.61;79.78;101494.66;6079941;23;20188;-82
2023/03/20 00:18:30;;;;;;;34.22;25.25;;;;;;;12.71;80.34;101508.91;6056651;23;20074;-82
2023/03/20 00:21:53;;;;;;;38.30;26.27;;;;;;;12.00;82.56;101412.72;5986763;23;20027;-81
2023/03/20 00:24:58;;;;;;;33.28;25.20;;;;;;;12.67;81.90;101522.59;6022228;23;20026;-80
2023/03/20 00:28:28;;;;;;;;;;;;;;;;;;;;;
2023/03/20 00:31:54;;;;;;;34.42;25.08;;;;;;;12.85;82.34;101573.53;5944224;23;20024;-81
2023/03/20 00:34:56;;;;;;;;;;;;;;;;;;;;;
2023/03/20 00:38:51;;;;;;;34.35;25.00;;;;;;;12.04;80.24;101408.84;6066584;23;20025;-81
2023/03/20 00:46:14;;;;;;;32.75;25.67;;;;;;;13.03;81.03;101545.31;5859245;24;20029;-78
2023/03/20 01:00:22;;;;;;;33.45;25.25;;;;;;;13.12;80.49;101549.88;5842007;24;20026;-81
2023/03/20 01:03:47;;;;;;;35.80;23.42;;;;;;;12.95;81.22;101545.13;5844211;24;20302;-79
2023/03/20 01:07:08;;;;;;;;;;;;;;;;;;;;;
2023/03/20 01:10:52;;;;;;;32.38;24.98;;;;;;;10.86;83.05;101265.00;5869060;24;20104;-83
2023/03/20 01:14:24;;;;;;;35.42;25.30;;;;;;;12.06;84.38;101483.22;5991817;23;20026;-83
2023/03/20 01:17:22;;;;;;;;;;;;;;;;;;;;;
2023/03/20 01:19:56;;;;;;;38.47;24.95;;;;;;;11.36;84.96;101386.84;6072615;23;20328;-80
2023/03/20 01:22:46;;;;;;;;;;;;;;;;;;;;;
2023/03/20 01:25:53;;;;;;;33.10;24.27;;;;;;;11.32;85.75;101412.81;6235894;23;20019;-81
2023/03/20 01:29:14;;;;;;;31.40;21.90;;;;;;;10.63;86.66;101303.13;6201399;23;20550;-78
2023/03/20 01:32:43;;;;;;;34.90;23.50;;;;;;;12.06;86.99;101537.28;6204819;23;20336;-80
2023/03/20 01:35:51;;;;;;;29.15;20.30;;;;;;;12.13;87.29;101546.47;6090331;23;20025;-82
2023/03/20 01:39:23;;;;;;;30.45;21.25;;;;;;;12.40;85.08;101554.06;6005632;23;20291;-79
2023/03/20 01:43:02;;;;;;;;;;;;;;;;;;;;;
2023/03/20 01:46:39;;;;;;;26.88;20.13;;;;;;;12.50;84.65;101537.31;5898612;23;20242;-78
2023/03/20 01:53:38;;;;;;;28.30;20.58;;;;;;;10.93;84.27;101262.72;5906787;24;20109;-80
2023/03/20 01:57:36;;;;;;;30.00;21.60;;;;;;;12.64;83.35;101529.03;5903371;24;20101;-79
2023/03/20 02:01:02;;;;;;;;;;;;;;;;;;;;;
2023/03/20 02:15:50;;;;;;;;;;;;;;;;;;;;;
2023/03/20 02:39:20;;;;;;;;;;;;;;;;;;;;;
2023/03/20 02:43:13;;;;;;;33.95;22.10;;;;;;;12.37;85.77;101494.88;5932642;24;20078;-81
2023/03/20 03:14:17;;;;;;;36.38;24.02;;;;;;;12.39;86.60;101482.28;5972112;24;20186;-80
2023/03/20 03:17:37;;;;;;;34.53;24.02;;;;;;;11.54;86.61;101334.00;5950828;24;20032;-81
2023/03/20 03:25:10;;;;;;;35.88;24.13;;;;;;;11.94;86.72;101391.94;5889466;24;20028;-77
2023/03/20 03:36:28;;;;;;;43.35;26.40;;;;;;;12.19;88.22;101455.50;5854264;24;20100;-82
2023/03/20 03:39:17;;;;;;;40.85;27.25;;;;;;;12.19;88.12;101459.97;5884782;24;20029;-79
2023/03/20 03:42:32;;;;;;;49.95;29.55;;;;;;;12.10;88.30;101450.91;5851433;24;20046;-83
2023/03/20 03:46:09;;;;;;;46.80;30.65;;;;;;;12.10;88.07;101461.56;5881277;24;20190;-81
2023/03/20 03:49:52;;;;;;;47.47;29.38;;;;;;;11.68;88.04;101397.56;5925947;24;20328;-80
2023/03/20 03:53:47;;;;;;;43.70;29.40;;;;;;;11.44;88.58;101356.97;5960894;24;20024;-79
2023/03/20 03:56:36;;;;;;;56.33;29.08;;;;;;;11.16;88.22;101300.72;6070416;23;20022;-81
2023/03/20 04:07:32;;;;;;;47.13;28.42;;;;;;;10.93;87.65;101281.31;5904191;24;20096;-80
2023/03/20 04:11:37;;;;;;;;;;;;;;;;;;;;;
2023/03/20 04:15:09;;;;;;;48.72;29.83;;;;;;;10.67;86.02;101201.88;5928539;23;20122;-81
2023/03/20 04:22:40;;;;;;;;;;;;;;;;;;;;;
2023/03/20 04:34:00;;;;;;;56.20;31.67;;;;;;;10.71;88.54;101279.50;5973693;23;20369;-82
2023/03/20 04:41:15;;;;;;;;;;;;;;;;;;;;;
2023/03/20 05:00:09;;;;;;;44.53;25.95;;;;;;;11.02;83.67;101206.19;5887178;24;20509;-80
2023/03/20 05:03:46;;;;;;;44.92;28.75;;;;;;;11.37;83.84;101270.72;5988773;23;20433;-79
2023/03/20 05:06:48;;;;;;;48.28;29.33;;;;;;;11.10;83.81;101208.22;5945488;23;20332;-79
2023/03/20 05:14:10;;;;;;;;;;;;;;;;;;;;;
2023/03/20 05:17:33;;;;;;;50.38;30.30;;;;;;;12.31;86.18;101458.13;5871084;24;20060;-79
2023/03/20 05:24:45;;;;;;;46.97;29.83;;;;;;;12.24;86.50;101473.75;5897977;24;20058;-82
2023/03/20 05:27:41;;;;;;;53.65;30.55;;;;;;;12.18;86.78;101477.78;5928287;24;20318;-79
2023/03/20 05:31:01;;;;;;;48.95;28.90;;;;;;;10.96;87.16;101285.53;5999029;23;20038;-81
2023/03/20 05:44:52;;;;;;;58.15;31.08;;;;;;;12.04;87.69;101510.00;5906837;24;20366;-81
2023/03/20 05:47:43;;;;;;;49.90;30.35;;;;;;;11.58;88.09;101444.47;5954186;23;20164;-79
2023/03/20 05:50:48;;;;;;;60.90;31.00;;;;;;;11.30;88.84;101388.16;5967106;23;20161;-80
2023/03/20 05:57:20;;;;;;;44.97;27.92;;;;;;;10.94;87.53;101324.66;6051115;23;20043;-79
2023/03/20 06:00:13;;;;;;;65.28;35.10;;;;;;;10.41;88.08;101237.59;6030853;23;20478;-78
2023/03/20 06:03:22;;;;;;;85.20;44.85;;;;;;;11.38;87.78;101405.31;5951200;23;20449;-79
2023/03/20 06:06:29;;;;;;;106.47;46.63;;;;;;;11.88;88.42;101509.53;5938795;24;20520;-79
2023/03/20 06:09:40;;;;;;;;;;;;;;;;;;;;;
2023/03/20 06:17:02;;;;;;;93.45;42.47;;;;;;;10.27;90.08;101283.78;5900609;24;20356;-83
2023/03/20 06:20:50;;;;;;;79.22;43.00;;;;;;;10.27;88.36;101259.91;5727887;24;20422;-79
2023/03/20 06:27:31;;;;;;;82.32;41.80;;;;;;;12.11;87.44;101537.81;5816488;24;20024;-77
2023/03/20 06:31:12;;;;;;;;;;;;;;;;;;;;;
2023/03/20 06:35:00;;;;;;;78.22;41.22;;;;;;;11.92;88.02;101529.59;5963782;24;20031;-77
2023/03/20 06:38:16;;;;;;;80.10;40.35;;;;;;;11.52;88.55;101476.84;5964415;24;20024;-78
2023/03/20 06:41:16;;;;;;;82.70;45.22;;;;;;;10.50;88.04;101302.41;6064352;23;20018;-79
2023/03/20 06:45:01;;;;;;;94.55;46.67;;;;;;;10.86;88.23;101373.91;6078978;23;20025;-79
2023/03/20 06:56:39;;;;;;;83.35;45.00;;;;;;;10.22;88.53;101294.75;5943711;24;20393;-76
2023/03/20 07:00:00;;;;;;;89.38;46.15;;;;;;;11.17;88.87;101461.88;5952016;24;20024;-79
2023/03/20 07:03:30;;;;;;;88.32;45.40;;;;;;;10.38;89.36;101314.81;5943575;23;20151;-80
2023/03/20 07:06:23;;;;;;;96.40;49.40;;;;;;;11.81;89.78;101566.81;5971979;23;20103;-78
2023/03/20 07:09:19;;;;;;;88.35;47.55;;;;;;;11.80;89.78;101578.44;6046762;23;20069;-78
2023/03/20 07:16:35;;;;;;;95.00;49.75;;;;;;;11.99;88.78;101562.75;6046963;23;20078;-79
2023/03/20 07:23:28;;;;;;;94.68;46.33;;;;;;;11.88;88.96;101563.56;5967467;23;20714;-79
2023/03/20 07:26:14;;;;;;;97.10;47.80;;;;;;;10.93;88.96;101421.25;6024333;23;20024;-77
2023/03/20 07:29:19;;;;;;;;;;;;;;;11.86;89.73;101578.78;6038153;23;20037;-79
2023/03/20 07:32:51;;;;;;;86.85;47.28;;;;;;;11.43;88.41;101482.91;5945622;24;20025;-78
2023/03/20 07:35:46;;;;;;;109.25;47.25;;;;;;;10.12;87.92;101285.81;5915805;24;20366;-78
2023/03/20 07:39:19;;;;;;;;;;;;;;;;;;;;;
2023/03/20 07:42:03;;;;;;;92.40;48.70;;;;;;;11.15;89.29;101473.59;5960056;23;20024;-78
2023/03/20 07:44:56;;;;;;;91.05;46.20;;;;;;;11.86;89.03;101589.41;6005043;23;20050;-78
2023/03/20 07:48:07;;;;;;;93.00;46.83;;;;;;;10.47;88.96;101376.00;5985310;23;20213;-78
2023/03/20 07:51:06;;;;;;;79.35;42.80;;;;;;;11.83;89.79;101588.81;5973062;23;20023;-80
2023/03/20 07:58:18;;;;;;;;;;;;;;;;;;;;;
2023/03/20 08:01:16;;;;;;;91.78;47.33;;;;;;;10.33;88.22;101368.25;6011045;23;20023;-78
2023/03/20 08:04:24;;;;;;;60.22;36.85;;;;;;;11.21;87.83;101527.09;6032783;23;20524;-80
2023/03/20 08:07:32;;;;;;;82.85;43.63;;;;;;;10.99;90.08;101516.41;6025901;23;20027;-78
2023/03/20 08:10:42;;;;;;;72.57;39.08;;;;;;;10.19;89.23;101348.03;6041766;23;20113;-80
2023/03/20 08:13:30;;;;;;;;;;;;;;;;;;;;;
2023/03/20 08:16:07;;;;;;;61.47;36.20;;;;;;;11.27;86.85;101446.88;6076993;23;20462;-79
2023/03/20 08:19:19;;;;;;;49.95;32.53;;;;;;;10.51;86.38;101314.72;6072797;23;20183;-81
2023/03/20 08:26:22;;;;;;;51.20;31.70;;;;;;;11.20;86.48;101437.69;6071847;23;20104;-80
2023/03/20 08:29:07;;;;;;;54.60;31.67;;;;;;;11.22;86.48;101454.38;6073261;23;20025;-79
2023/03/20 08:32:02;;;;;;;45.38;31.67;;;;;;;11.71;87.02;101530.28;6059697;23;20037;-81
2023/03/20 08:39:24;;;;;;;62.42;31.42;;;;;;;11.55;87.19;101524.47;6132803;23;20020;-83
2023/03/20 08:42:41;;;;;;;44.47;28.30;;;;;;;11.93;87.27;101605.78;6189247;23;20022;-77
2023/03/20 08:48:35;;;;;;;41.30;26.30;;;;;;;10.59;86.95;101360.13;6226828;23;20592;-80
2023/03/20 08:51:14;;;;;;;40.22;26.02;;;;;;;11.20;87.40;101469.59;6192461;23;20074;-79
2023/03/20 08:57:56;;;;;;;42.28;27.02;;;;;;;11.37;88.86;101539.22;6124434;23;20346;-81
2023/03/20 09:00:44;;;;;;;40.83;24.02;;;;;;;11.16;89.46;101501.84;6122036;23;20018;-80
2023/03/20 09:04:09;;;;;;;40.10;25.60;;;;;;;10.52;89.22;101396.06;6006550;23;20096;-80
2023/03/20 09:10:45;;;;;;;32.85;21.83;;;;;;;11.88;89.06;101631.91;6118978;23;20020;-80
2023/03/20 09:33:41;;;;;;;23.77;18.08;;;;;;;10.91;90.45;101499.25;5929757;24;20295;-79
2023/03/20 09:36:50;;;;;;;23.33;15.48;;;;;;;10.37;90.59;101393.59;6046681;23;20082;-83
2023/03/20 09:40:46;;;;;;;;;;;;;;;;;;;;;
2023/03/20 09:51:21;;;;;;;17.08;12.02;;;;;;;11.74;89.01;101596.53;6134895;23;20015;-83
2023/03/20 09:54:57;;;;;;;20.92;13.55;;;;;;;12.09;89.52;101640.88;6223315;23;20106;-82
2023/03/20 10:02:23;;;;;;;;;;;;;;;;;;;;;
2023/03/20 10:06:11;;;;;;;15.75;12.60;;;;;;;12.30;90.12;101632.16;6085964;23;20057;-81
2023/03/20 10:09:56;;;;;;;14.55;10.27;;;;;;;12.34;88.51;101650.41;6050909;23;20727;-80
2023/03/20 10:13:31;;;;;;;15.93;11.95;;;;;;;12.31;88.36;101645.34;5978275;23;20121;-82
2023/03/20 10:17:06;;;;;;;;;;;;;;;;;;;;;
2023/03/20 10:20:48;;;;;;;11.50;9.75;;;;;;;10.81;86.07;101361.97;6034026;23;20310;-78
2023/03/20 10:24:14;;;;;;;15.27;10.02;;;;;;;11.06;85.76;101387.44;6066501;23;20024;-81
2023/03/20 10:31:12;;;;;;;16.02;12.15;;;;;;;12.39;85.93;101588.81;6039607;23;20023;-80
2023/03/20 10:42:11;;;;;;;;;;;;;;;;;;;;;
2023/03/20 10:49:31;;;;;;;24.65;18.52;;;;;;;12.35;87.83;101624.63;6084887;23;20403;-79
2023/03/20 10:57:01;;;;;;;27.13;18.13;;;;;;;12.59;87.39;101617.31;5985016;23;20103;-79
2023/03/20 11:00:19;;;;;;;;;;;;;;;;;;;;;
2023/03/20 11:07:27;;;;;;;21.95;16.10;;;;;;;10.87;86.64;101380.94;5982302;23;20155;-78
2023/03/20 11:10:17;;;;;;;26.05;16.67;;;;;;;12.47;86.93;101618.31;6108680;23;20021;-77
2023/03/20 11:28:24;;;;;;;;;;;;;;;;;;;;;
2023/03/20 11:32:00;;;;;;;23.65;15.15;;;;;;;11.15;85.70;101378.75;5933491;24;20074;-79
2023/03/20 11:35:34;;;;;;;21.98;16.23;;;;;;;10.85;85.89;101332.38;5817004;24;20373;-78
2023/03/20 11:38:53;;;;;;;27.10;19.40;;;;;;;12.28;86.77;101571.06;5907692;24;20112;-78
2023/03/20 11:42:22;;;;;;;20.33;15.63;;;;;;;12.54;86.36;101592.88;5902393;24;20040;-76
2023/03/20 11:45:34;;;;;;;22.42;16.02;;;;;;;12.21;87.10;101545.88;5921044;24;20057;-77
2023/03/20 11:49:26;;;;;;;24.55;15.35;;;;;;;12.06;87.89;101521.31;5951629;23;20245;-76
2023/03/20 11:53:16;;;;;;;;;;;;;;;;;;;;;
2023/03/20 11:57:17;;;;;;;;;;;;;;;;;;;;;
2023/03/20 12:00:43;;;;;;;;;;;;;;;;;;;;;
2023/03/20 12:07:56;;;;;;;;;;;;;;;;;;;;;
2023/03/20 12:11:25;;;;;;;23.05;16.42;;;;;;;11.38;87.33;101352.16;5960067;23;20270;-80
2023/03/20 12:15:06;;;;;;;23.52;16.08;;;;;;;12.35;86.28;101502.97;5832620;24;20107;-78
2023/03/20 12:18:24;;;;;;;29.02;16.98;;;;;;;12.59;86.46;101550.72;5811175;24;20035;-77
2023/03/20 12:26:06;;;;;;;;;;;;;;;;;;;;;
2023/03/20 12:29:40;;;;;;;27.92;18.05;;;;;;;12.74;88.29;101539.78;5782742;24;20380;-78
2023/03/20 12:32:46;;;;;;;29.40;19.02;;;;;;;11.22;87.13;101278.97;5781926;24;20027;-78
2023/03/20 12:44:14;;;;;;;25.10;17.65;;;;;;;11.35;86.68;101300.06;5761414;24;20148;-79
2023/03/20 12:51:56;;;;;;;29.13;19.15;;;;;;;13.02;86.24;101541.00;5791653;24;20038;-80
2023/03/20 12:55:02;;;;;;;28.77;20.95;;;;;;;13.02;85.41;101533.00;5750697;24;20538;-79
2023/03/20 13:02:32;;;;;;;28.80;20.88;;;;;;;12.92;86.62;101532.91;5872571;24;20020;-78
2023/03/20 13:09:46;;;;;;;28.77;20.42;;;;;;;12.83;85.58;101512.38;5900242;24;20210;-78
2023/03/20 13:13:07;;;;;;;26.70;20.20;;;;;;;13.01;86.39;101534.81;5919337;24;20072;-77
2023/03/20 13:16:26;;;;;;;24.27;18.10;;;;;;;13.02;84.38;101525.00;5912072;24;20126;-79
2023/03/20 13:21:30;;;;;;;;;;;;;;;;;;;;;
2023/03/20 13:28:29;;;;;;;23.85;16.67;;;;;;;12.68;84.80;101469.22;5860551;24;20229;-76
2023/03/20 13:31:35;;;;;;;;;;;;;;;;;;;;;
2023/03/20 13:35:16;;;;;;;23.50;15.85;;;;;;;13.17;83.71;101528.16;5924725;24;20031;-79
2023/03/20 13:44:42;;;;;;;28.70;19.17;;;;;;;12.54;81.91;101427.75;5872032;24;20370;-79
2023/03/20 13:51:36;;;;;;;22.98;18.15;;;;;;;13.26;80.66;101530.91;5897536;24;20028;-77
2023/03/20 13:55:14;;;;;;;;;;;;;;;;;;;;;
2023/03/20 13:58:25;;;;;;;26.70;19.42;;;;;;;13.34;80.12;101532.94;5900678;24;20314;-77
2023/03/20 14:01:46;;;;;;;28.48;20.42;;;;;;;13.39;80.36;101528.03;5908393;23;20249;-79
2023/03/20 14:05:10;;;;;;;26.25;20.25;;;;;;;13.37;81.47;101532.66;5983519;23;20074;-84
2023/03/20 14:16:28;;;;;;;35.85;22.80;;;;;;;12.25;80.05;101304.22;5927610;24;20030;-84
2023/03/20 14:31:43;;;;;;;;;;;;;;;;;;;;;
2023/03/20 14:42:46;;;;;;;;;;;;;;;;;;;;;
2023/03/20 15:01:31;;;;;;;44.67;32.08;;;;;;;13.30;71.69;101251.53;6030329;23;20025;-79
2023/03/20 15:13:23;;;;;;;39.00;29.00;;;;;;;14.56;71.59;101493.69;5985308;23;20172;-83
2023/03/20 15:29:15;;;;;;;40.65;26.35;;;;;;;14.42;72.78;101502.94;5988199;23;20049;-85
2023/03/20 15:53:48;;;;;;;;;;;;;;;;;;;;;
2023/03/20 16:00:22;;;;;;;46.17;30.70;;;;;;;12.89;77.23;101272.03;5920588;23;20185;-83
2023/03/20 16:03:39;;;;;;;;;;;;;;;;;;;;;
2023/03/20 16:11:12;;;;;;;;;;;;;;;;;;;;;
2023/03/20 16:15:24;;;;;;;37.63;28.58;;;;;;;14.40;75.96;101520.09;5829126;24;20061;-84
2023/03/20 16:19:08;;;;;;;46.58;29.15;;;;;;;14.29;77.27;101519.22;5768756;24;20034;-84
2023/03/20 16:42:59;;;;;;;;;;;;;;;;;;;;;
2023/03/20 16:49:56;;;;;;;44.90;31.95;;;;;;;14.04;78.47;101530.44;6030644;23;20022;-82
2023/03/20 17:03:47;;;;;;;47.05;33.97;;;;;;;12.60;78.60;101286.06;6153621;23;20085;-85
2023/03/20 17:33:54;;;;;;;53.05;35.47;;;;;;;13.14;80.62;101446.63;5943920;24;20390;-83
2023/03/20 17:40:49;;;;;;;53.38;39.55;;;;;;;13.50;82.40;101540.47;5942918;24;20109;-81
2023/03/20 17:43:55;;;;;;;60.72;37.20;;;;;;;13.35;81.76;101515.09;5958458;23;20099;-81
2023/03/20 17:46:37;;;;;;;55.20;36.65;;;;;;;12.89;81.29;101441.72;6046229;23;20026;-82
2023/03/20 17:49:26;;;;;;;58.08;34.72;;;;;;;13.16;81.51;101483.84;6044483;23;20109;-82
2023/03/20 17:51:55;;;;;;;50.05;34.70;;;;;;;13.32;81.81;101513.53;6030710;23;20248;-85
2023/03/20 17:54:26;;;;;;;55.50;35.53;;;;;;;13.34;82.08;101516.94;6048714;23;20027;-84
2023/03/20 17:57:04;;;;;;;53.58;35.97;;;;;;;13.33;83.44;101523.25;6056692;23;20058;-84
2023/03/20 17:59:32;;;;;;;59.72;36.75;;;;;;;13.36;83.27;101528.31;6009445;23;20374;-84
2023/03/20 18:01:59;;;;;;;51.08;34.25;;;;;;;13.37;81.80;101514.00;6043736;23;20441;-81
2023/03/20 18:04:44;;;;;;;54.00;33.42;;;;;;;13.28;82.08;101516.59;6056143;23;20022;-81
2023/03/20 18:07:20;;;;;;;48.08;33.42;;;;;;;11.96;82.99;101310.16;6054103;23;20030;-83
2023/03/20 18:09:47;;;;;;;47.22;33.55;;;;;;;12.92;83.03;101473.44;6091713;23;20522;-82
2023/03/20 18:12:21;;;;;;;43.83;30.27;;;;;;;13.38;82.70;101536.19;6155207;23;20086;-80
2023/03/20 18:14:52;;;;;;;43.22;30.83;;;;;;;12.53;83.94;101431.38;6162243;23;20020;-80
2023/03/20 18:17:26;;;;;;;43.83;30.65;;;;;;;13.13;84.20;101532.06;6173904;23;20074;-82
2023/03/20 18:19:56;;;;;;;41.95;30.83;;;;;;;13.09;84.74;101536.81;6135952;23;20322;-82
2023/03/20 18:22:23;;;;;;;47.40;32.25;;;;;;;12.82;85.24;101492.88;6153059;23;20024;-80
2023/03/20 18:24:56;;;;;;;42.40;30.45;;;;;;;12.84;85.17;101498.09;6151497;23;20025;-79
2023/03/20 18:27:26;;;;;;;56.00;32.80;;;;;;;12.40;85.77;101446.69;6163302;23;20088;-78
2023/03/20 18:30:09;;;;;;;42.47;31.75;;;;;;;12.68;85.31;101487.03;6157169;23;20063;-81
2023/03/20 18:32:36;;;;;;;43.22;31.58;;;;;;;12.90;85.97;101534.88;6161924;23;20031;-82
2023/03/20 18:35:03;;;;;;;47.53;31.98;;;;;;;12.83;86.43;101536.34;6160169;23;20404;-81
2023/03/20 18:37:34;;;;;;;40.72;31.42;;;;;;;12.61;86.60;101506.16;6152582;23;20107;-83
2023/03/20 18:40:07;;;;;;;42.40;31.60;;;;;;;12.78;86.44;101546.56;6156322;23;20017;-80
2023/03/20 18:42:44;;;;;;;49.13;32.35;;;;;;;12.77;86.81;101556.38;6150213;23;20095;-80
2023/03/20 18:45:17;;;;;;;43.35;32.08;;;;;;;12.76;86.72;101546.66;6153740;23;20425;-79
2023/03/20 18:47:46;;;;;;;;;;;;;;;12.73;86.97;101548.75;6160908;23;20337;-80
2023/03/20 18:50:24;;;;;;;51.75;32.60;;;;;;;12.67;86.89;101533.25;6166847;23;19995;-78
2023/03/20 18:52:52;;;;;;;48.92;33.35;;;;;;;12.66;87.10;101539.56;6191839;23;20024;-81
2023/03/20 18:55:21;;;;;;;48.65;34.05;;;;;;;12.31;86.97;101479.44;6175977;23;20773;-79
2023/03/20 18:57:52;;;;;;;55.58;37.90;;;;;;;12.48;86.32;101505.50;6151195;23;20440;-79
2023/03/20 19:00:29;;;;;;;52.10;35.25;;;;;;;12.58;86.56;101525.06;6155092;23;20315;-80
2023/03/20 19:03:00;;;;;;;56.03;35.97;;;;;;;11.58;86.62;101364.69;6169746;23;20027;-82
2023/03/20 19:05:29;;;;;;;48.28;33.17;;;;;;;12.63;86.13;101542.50;6151929;23;20104;-81
2023/03/20 19:07:58;;;;;;;49.03;32.50;;;;;;;11.90;86.64;101443.72;6166226;23;20017;-81
2023/03/20 19:10:28;;;;;;;43.03;32.67;;;;;;;12.66;86.51;101544.91;6176668;23;20338;-81
2023/03/20 19:12:56;;;;;;;50.33;33.20;;;;;;;12.59;86.70;101558.72;6159728;23;20021;-79
2023/03/20 19:15:29;;;;;;;42.15;32.05;;;;;;;12.55;86.69;101541.31;6176861;23;20017;-82
2023/03/20 19:17:56;;;;;;;47.85;34.63;;;;;;;11.64;86.83;101398.75;6174859;23;20319;-81
2023/03/20 19:20:41;;;;;;;48.00;34.38;;;;;;;12.51;87.19;101541.69;6164052;23;20305;-82
2023/03/20 19:23:11;;;;;;;46.17;33.38;;;;;;;11.07;87.74;101322.72;6156039;23;20023;-80
2023/03/20 19:25:53;;;;;;;50.65;34.20;;;;;;;12.21;88.31;101521.94;6167313;23;20186;-80
2023/03/20 19:31:23;;;;;;;60.25;39.35;;;;;;;12.31;87.67;101532.69;6150192;23;20012;-81
2023/03/20 19:33:55;;;;;;;51.80;38.53;;;;;;;11.72;87.57;101435.38;6155338;23;20380;-80
2023/03/20 19:36:36;;;;;;;53.65;38.03;;;;;;;12.17;88.35;101526.66;6158537;23;20028;-78
2023/03/20 19:39:13;;;;;;;54.97;38.40;;;;;;;12.18;87.71;101539.00;6149957;23;20623;-81
2023/03/20 19:41:40;;;;;;;46.58;36.50;;;;;;;12.24;88.04;101550.13;6137584;23;20057;-78
2023/03/20 19:44:16;;;;;;;54.50;38.50;;;;;;;12.17;87.96;101553.25;6133416;23;20100;-80
2023/03/20 19:46:59;;;;;;;46.72;35.97;;;;;;;12.13;88.03;101548.31;6130137;23;20307;-81
2023/03/20 19:49:31;;;;;;;51.30;36.45;;;;;;;11.55;88.28;101471.28;6185864;23;20017;-79
2023/03/20 19:52:04;;;;;;;57.35;39.38;;;;;;;12.01;88.36;101544.81;6186975;23;20056;-83
2023/03/20 19:54:35;;;;;;;56.22;37.40;;;;;;;12.08;88.67;101558.47;6150676;23;20016;-80
2023/03/20 19:57:05;;;;;;;49.33;36.83;;;;;;;11.41;89.00;101452.91;6165929;23;20318;-81
2023/03/20 19:59:38;;;;;;;62.95;37.03;;;;;;;11.86;88.67;101532.69;6156867;23;20240;-82
2023/03/20 20:02:10;;;;;;;52.78;37.30;;;;;;;11.95;89.03;101547.97;6157108;23;20365;-80
2023/03/20 20:04:37;;;;;;;53.85;36.40;;;;;;;11.42;89.15;101467.91;6153728;23;20052;-82
2023/03/20 20:07:06;;;;;;;52.42;36.40;;;;;;;11.83;89.62;101535.63;6162925;23;20074;-79
2023/03/20 20:10:06;;;;;;;52.50;37.13;;;;;;;11.67;89.44;101515.53;6149829;23;20046;-78
2023/03/20 20:12:37;;;;;;;51.53;37.47;;;;;;;11.89;89.78;101559.97;6181204;23;20345;-81
2023/03/20 20:15:06;;;;;;;54.17;38.15;;;;;;;11.65;89.64;101511.28;6150851;23;20036;-79
2023/03/20 20:17:33;;;;;;;55.22;38.22;;;;;;;11.76;89.64;101544.06;6185435;23;20471;-81
2023/03/20 20:20:01;;;;;;;55.03;37.92;;;;;;;11.97;89.07;101556.69;6155935;23;20465;-81
2023/03/20 20:22:31;;;;;;;57.15;36.30;;;;;;;11.71;88.93;101527.63;6143595;23;20031;-82
2023/03/20 20:25:05;;;;;;;50.80;37.38;;;;;;;11.86;89.07;101556.66;6161293;23;20545;-81
2023/03/20 20:27:33;;;;;;;53.95;36.58;;;;;;;11.50;89.01;101516.00;6185050;23;20017;-81
2023/03/20 20:30:02;;;;;;;49.55;35.47;;;;;;;11.28;88.90;101482.28;6162151;23;20676;-80
2023/03/20 20:32:29;;;;;;;49.03;35.10;;;;;;;11.70;88.84;101568.50;6157234;23;20374;-81
2023/03/20 20:34:58;;;;;;;52.92;35.13;;;;;;;11.55;89.01;101545.75;6183949;23;20043;-83
2023/03/20 20:37:45;;;;;;;54.22;37.00;;;;;;;11.65;88.86;101573.34;6179332;23;20563;-79
2023/03/20 20:40:35;;;;;;;49.70;36.25;;;;;;;11.50;88.93;101550.59;6173775;23;20129;-83
2023/03/20 20:43:16;;;;;;;51.70;34.90;;;;;;;11.34;89.72;101517.22;6164625;23;20023;-82
2023/03/20 20:46:12;;;;;;;52.58;35.67;;;;;;;11.51;89.11;101539.00;6154421;23;20391;-82
2023/03/20 20:48:48;;;;;;;51.20;35.22;;;;;;;11.65;88.43;101541.44;6166018;23;20278;-82
2023/03/20 20:51:27;;;;;;;58.85;35.67;;;;;;;11.82;88.16;101568.50;6163566;23;20032;-82
2023/03/20 20:54:12;;;;;;;57.60;34.90;;;;;;;11.37;87.40;101494.03;6163434;23;20544;-82
2023/03/20 20:56:45;;;;;;;59.00;36.47;;;;;;;11.51;87.48;101520.38;6161658;23;20364;-82
2023/03/20 20:59:18;;;;;;;62.47;37.80;;;;;;;11.76;87.44;101562.69;6153762;23;20654;-83
2023/03/20 21:01:49;;;;;;;64.57;38.50;;;;;;;11.82;87.33;101573.81;6165917;23;20070;-82
2023/03/20 21:04:16;;;;;;;50.97;34.97;;;;;;;11.67;87.26;101576.72;6181871;23;20082;-80
2023/03/20 21:06:43;;;;;;;54.40;35.65;;;;;;;11.37;87.49;101534.75;6191495;23;20025;-80
2023/03/20 21:09:30;;;;;;;51.50;34.42;;;;;;;11.37;87.57;101544.53;6171667;23;20044;-83
2023/03/20 21:12:03;;;;;;;50.28;33.42;;;;;;;11.48;87.96;101571.13;6165793;23;20503;-81
2023/03/20 21:14:45;;;;;;;52.75;35.20;;;;;;;11.10;87.90;101516.47;6171400;23;20029;-80
2023/03/20 21:17:17;;;;;;;49.58;33.50;;;;;;;11.21;88.38;101550.16;6172059;23;20107;-81
2023/03/20 21:19:50;;;;;;;53.45;36.22;;;;;;;11.39;88.31;101587.81;6165124;23;20050;-79
2023/03/20 21:22:21;;;;;;;50.20;34.15;;;;;;;11.33;87.99;101584.66;6184287;23;20020;-82
2023/03/20 21:24:54;;;;;;;48.08;33.17;;;;;;;11.29;88.39;101583.19;6175114;23;20614;-81
2023/03/20 21:27:39;;;;;;;50.30;35.15;;;;;;;11.09;88.54;101562.56;6153558;23;20028;-82
2023/03/20 21:30:10;;;;;;;53.80;34.53;;;;;;;11.09;89.20;101570.56;6155917;23;20150;-80
2023/03/20 21:32:43;;;;;;;55.65;35.20;;;;;;;11.13;89.11;101572.88;6162095;23;20020;-82
2023/03/20 21:35:10;;;;;;;52.25;36.35;;;;;;;11.01;88.89;101562.31;6167682;23;20050;-82
2023/03/20 21:37:42;;;;;;;54.92;35.63;;;;;;;11.01;89.63;101564.97;6187010;23;20526;-82
2023/03/20 21:40:31;;;;;;;52.38;35.95;;;;;;;10.90;88.80;101561.31;6145816;23;20020;-82
2023/03/20 21:43:00;;;;;;;48.10;34.35;;;;;;;10.60;88.69;101502.53;6147205;23;20023;-81
2023/03/20 21:45:34;;;;;;;50.17;36.15;;;;;;;11.12;88.59;101605.72;6152849;23;20318;-81
2023/03/20 21:48:24;;;;;;;59.95;37.65;;;;;;;10.50;88.61;101505.03;6150028;23;20352;-82
2023/03/20 21:51:14;;;;;;;56.92;37.30;;;;;;;10.74;88.63;101560.78;6145193;23;20074;-83
2023/03/20 21:54:06;;;;;;;52.72;37.35;;;;;;;11.09;89.38;101613.06;6164074;23;20337;-82
2023/03/20 21:56:56;;;;;;;61.78;37.53;;;;;;;11.06;89.25;101608.84;6173605;23;20020;-80
2023/03/20 21:59:46;;;;;;;58.33;36.70;;;;;;;11.04;89.31;101593.97;6157429;23;20090;-79
2023/03/20 22:02:33;;;;;;;54.75;36.63;;;;;;;10.35;89.34;101483.13;6176375;23;20027;-82
2023/03/20 22:05:01;;;;;;;56.45;37.75;;;;;;;11.00;88.59;101589.88;6157036;23;20456;-80
2023/03/20 22:07:50;;;;;;;56.03;35.67;;;;;;;10.90;88.87;101577.28;6153111;23;20344;-82
2023/03/20 22:10:49;;;;;;;54.45;35.58;;;;;;;10.84;89.28;101567.09;6173983;23;20453;-81
2023/03/20 22:13:40;;;;;;;58.00;37.65;;;;;;;11.01;88.96;101610.16;6162969;23;20484;-80
2023/03/20 22:16:31;;;;;;;53.20;36.38;;;;;;;10.65;89.26;101540.19;6167718;23;20289;-80
2023/03/20 22:19:28;;;;;;;60.55;40.05;;;;;;;11.06;89.11;101602.69;6171514;23;20702;-81
2023/03/20 22:22:18;;;;;;;50.47;34.13;;;;;;;10.72;88.48;101544.09;6176437;23;20021;-80
2023/03/20 22:25:05;;;;;;;57.08;38.65;;;;;;;10.96;87.36;101591.06;6181100;23;20110;-83
2023/03/20 22:27:54;;;;;;;57.05;38.20;;;;;;;10.80;87.79;101573.59;6175611;23;20462;-81
2023/03/20 22:30:41;;;;;;;57.60;38.75;;;;;;;10.88;87.69;101592.47;6180678;23;20698;-79
2023/03/20 22:33:30;;;;;;;62.92;38.45;;;;;;;10.58;88.14;101549.59;6157734;23;20020;-81
2023/03/20 22:36:15;;;;;;;61.83;38.70;;;;;;;10.80;88.48;101584.25;6139936;23;20028;-78
2023/03/20 22:39:08;;;;;;;58.88;39.85;;;;;;;10.60;88.88;101539.69;6178258;23;20378;-79
2023/03/20 22:42:01;;;;;;;59.85;40.45;;;;;;;10.89;88.59;101586.19;6158523;23;20495;-82